createdAt,value
2023-05-20T00:00:00.436Z,432.00
2023-05-20T00:01:00.478Z,434.00
2023-05-20T00:02:00.485Z,434.00
2023-05-20T00:03:00.540Z,433.00
2023-05-20T00:04:00.667Z,433.00
2023-05-20T00:05:00.678Z,432.00
2023-05-20T00:06:00.560Z,430.00
2023-05-20T00:07:00.585Z,429.00
2023-05-20T00:08:00.643Z,430.00
2023-05-20T00:09:00.688Z,429.00
2023-05-20T00:10:00.683Z,428.00
2023-05-20T00:11:00.702Z,429.00
2023-05-20T00:12:00.767Z,430.00
2023-05-20T00:13:00.807Z,431.00
2023-05-20T00:14:00.829Z,433.00
2023-05-20T00:15:00.845Z,433.00
2023-05-20T00:16:00.898Z,434.00
2023-05-20T00:17:00.938Z,437.00
2023-05-20T00:18:01.011Z,438.00
2023-05-20T00:19:01.004Z,439.00
2023-05-20T00:20:01.063Z,439.00
2023-05-20T00:21:01.070Z,440.00
2023-05-20T00:22:01.142Z,443.00
2023-05-20T00:23:01.209Z,444.00
2023-05-20T00:24:01.229Z,444.00
2023-05-20T00:25:01.302Z,443.00
2023-05-20T00:26:01.333Z,442.00
2023-05-20T00:27:01.390Z,442.00
2023-05-20T00:28:01.387Z,443.00
2023-05-20T00:29:01.428Z,443.00
2023-05-20T00:30:01.480Z,444.00
2023-05-20T00:31:01.545Z,444.00
2023-05-20T00:32:01.745Z,444.00
2023-05-20T00:33:01.747Z,443.00
2023-05-20T00:34:01.730Z,441.00
2023-05-20T00:35:01.741Z,439.00
2023-05-20T00:36:01.737Z,437.00
2023-05-20T00:37:01.752Z,435.00
2023-05-20T00:38:01.757Z,434.00
2023-05-20T00:39:01.777Z,433.00
2023-05-20T00:40:01.810Z,432.00
2023-05-20T00:41:01.772Z,431.00
2023-05-20T00:42:01.793Z,430.00
2023-05-20T00:43:01.797Z,431.00
2023-05-20T00:44:01.796Z,433.00
2023-05-20T00:45:01.807Z,433.00
2023-05-20T00:46:01.872Z,431.00
2023-05-20T00:47:01.858Z,431.00
2023-05-20T00:48:01.921Z,433.00
2023-05-20T00:49:01.954Z,435.00
2023-05-20T00:50:02.106Z,436.00
2023-05-20T00:51:02.104Z,438.00
2023-05-20T00:52:02.153Z,437.00
2023-05-20T00:53:02.212Z,437.00
2023-05-20T00:54:03.304Z,439.00
2023-05-20T00:55:02.227Z,440.00
2023-05-20T00:56:02.251Z,441.00
2023-05-20T00:57:02.231Z,440.00
2023-05-20T00:58:02.210Z,441.00
2023-05-20T00:59:02.284Z,439.00
2023-05-20T01:00:02.447Z,441.00
2023-05-20T01:01:02.437Z,441.00
2023-05-20T01:02:02.482Z,444.00
2023-05-20T01:03:02.553Z,445.00
2023-05-20T01:04:02.436Z,445.00
2023-05-20T01:05:02.484Z,443.00
2023-05-20T01:06:02.462Z,442.00
2023-05-20T01:07:02.473Z,447.00
2023-05-20T01:08:02.490Z,448.00
2023-05-20T01:09:03.308Z,448.00
2023-05-20T01:10:02.564Z,446.00
2023-05-20T01:11:02.551Z,445.00
2023-05-20T01:12:02.533Z,447.00
2023-05-20T01:13:02.592Z,449.00
2023-05-20T01:14:02.598Z,448.00
2023-05-20T01:15:02.648Z,446.00
2023-05-20T01:16:02.686Z,448.00
2023-05-20T01:17:02.670Z,446.00
2023-05-20T01:18:02.746Z,445.00
2023-05-20T01:19:02.717Z,446.00
2023-05-20T01:20:02.739Z,444.00
2023-05-20T01:21:02.778Z,445.00
2023-05-20T01:22:02.796Z,444.00
2023-05-20T01:23:02.826Z,443.00
2023-05-20T01:24:02.840Z,440.00
2023-05-20T01:25:02.894Z,439.00
2023-05-20T01:26:02.935Z,442.00
2023-05-20T01:27:02.956Z,443.00
2023-05-20T01:28:02.995Z,443.00
2023-05-20T01:29:03.020Z,441.00
2023-05-20T01:30:03.134Z,442.00
2023-05-20T01:31:03.227Z,440.00
2023-05-20T01:32:03.185Z,441.00
2023-05-20T01:33:03.283Z,443.00
2023-05-20T01:34:03.234Z,443.00
2023-05-20T01:35:03.322Z,444.00
2023-05-20T01:36:03.360Z,444.00
2023-05-20T01:37:03.409Z,444.00
2023-05-20T01:38:03.413Z,445.00
2023-05-20T01:39:03.443Z,444.00
2023-05-20T01:40:03.531Z,441.00
2023-05-20T01:41:03.570Z,439.00
2023-05-20T01:42:03.646Z,438.00
2023-05-20T01:43:03.683Z,437.00
2023-05-20T01:44:03.729Z,439.00
2023-05-20T01:45:03.779Z,442.00
2023-05-20T01:46:03.832Z,443.00
2023-05-20T01:47:03.918Z,442.00
2023-05-20T01:48:03.922Z,443.00
2023-05-20T01:49:03.908Z,444.00
2023-05-20T01:50:03.989Z,446.00
2023-05-20T01:51:04.014Z,447.00
2023-05-20T01:52:04.029Z,447.00
2023-05-20T01:53:04.079Z,449.00
2023-05-20T01:54:04.118Z,449.00
2023-05-20T01:55:04.164Z,449.00
2023-05-20T01:56:04.190Z,449.00
2023-05-20T01:57:04.227Z,447.00
2023-05-20T01:58:04.269Z,446.00
2023-05-20T01:59:04.301Z,448.00
2023-05-20T02:00:04.332Z,448.00
2023-05-20T02:01:04.444Z,449.00
2023-05-20T02:02:04.512Z,449.00
2023-05-20T02:03:04.520Z,450.00
2023-05-20T02:04:04.531Z,451.00
2023-05-20T02:05:04.657Z,453.00
2023-05-20T02:06:04.669Z,455.00
2023-05-20T02:07:04.682Z,457.00
2023-05-20T02:08:04.769Z,456.00
2023-05-20T02:09:04.806Z,456.00
2023-05-20T02:10:04.879Z,456.00
2023-05-20T02:11:04.920Z,456.00
2023-05-20T02:12:04.940Z,457.00
2023-05-20T02:13:06.239Z,456.00
2023-05-20T02:14:05.025Z,459.00
2023-05-20T02:15:05.240Z,459.00
2023-05-20T02:16:05.206Z,460.00
2023-05-20T02:17:05.237Z,460.00
2023-05-20T02:18:05.314Z,462.00
2023-05-20T02:19:05.407Z,461.00
2023-05-20T02:20:05.451Z,458.00
2023-05-20T02:21:05.457Z,458.00
2023-05-20T02:22:05.495Z,458.00
2023-05-20T02:23:05.569Z,459.00
2023-05-20T02:24:05.585Z,459.00
2023-05-20T02:25:05.719Z,458.00
2023-05-20T02:26:05.703Z,458.00
2023-05-20T02:27:05.804Z,459.00
2023-05-20T02:28:05.853Z,461.00
2023-05-20T02:29:05.889Z,465.00
2023-05-20T02:30:05.956Z,465.00
2023-05-20T02:31:05.972Z,468.00
2023-05-20T02:32:06.052Z,465.00
2023-05-20T02:33:06.194Z,464.00
2023-05-20T02:34:06.217Z,463.00
2023-05-20T02:35:06.278Z,461.00
2023-05-20T02:36:06.298Z,460.00
2023-05-20T02:37:06.334Z,455.00
2023-05-20T02:38:06.416Z,453.00
2023-05-20T02:39:06.459Z,450.00
2023-05-20T02:40:06.523Z,450.00
2023-05-20T02:41:06.558Z,451.00
2023-05-20T02:42:06.597Z,450.00
2023-05-20T02:43:06.684Z,453.00
2023-05-20T02:44:06.742Z,452.00
2023-05-20T02:45:06.846Z,455.00
2023-05-20T02:46:06.884Z,458.00
2023-05-20T02:47:06.909Z,458.00
2023-05-20T02:48:07.107Z,458.00
2023-05-20T02:49:06.992Z,460.00
2023-05-20T02:50:07.156Z,461.00
2023-05-20T02:51:07.127Z,461.00
2023-05-20T02:52:07.162Z,460.00
2023-05-20T02:53:07.272Z,456.00
2023-05-20T02:54:07.284Z,455.00
2023-05-20T02:55:07.677Z,454.00
2023-05-20T02:56:07.385Z,453.00
2023-05-20T02:57:07.387Z,453.00
2023-05-20T02:58:07.465Z,452.00
2023-05-20T02:59:07.859Z,455.00
2023-05-20T03:00:07.637Z,456.00
2023-05-20T03:01:07.664Z,455.00
2023-05-20T03:02:07.744Z,457.00
2023-05-20T03:03:07.869Z,458.00
2023-05-20T03:04:07.831Z,459.00
2023-05-20T03:05:07.876Z,459.00
2023-05-20T03:06:07.921Z,458.00
2023-05-20T03:07:07.989Z,458.00
2023-05-20T03:08:08.051Z,458.00
2023-05-20T03:09:08.098Z,458.00
2023-05-20T03:10:08.195Z,457.00
2023-05-20T03:11:08.271Z,457.00
2023-05-20T03:12:08.272Z,457.00
2023-05-20T03:13:08.310Z,458.00
2023-05-20T03:14:08.394Z,456.00
2023-05-20T03:15:08.402Z,456.00
2023-05-20T03:16:08.513Z,457.00
2023-05-20T03:17:08.457Z,457.00
2023-05-20T03:18:08.650Z,458.00
2023-05-20T03:19:08.619Z,457.00
2023-05-20T03:20:08.601Z,457.00
2023-05-20T03:21:08.638Z,457.00
2023-05-20T03:22:08.720Z,460.00
2023-05-20T03:23:08.790Z,463.00
2023-05-20T03:24:08.788Z,466.00
2023-05-20T03:25:08.830Z,466.00
2023-05-20T03:26:08.887Z,468.00
2023-05-20T03:27:08.923Z,468.00
2023-05-20T03:28:08.994Z,468.00
2023-05-20T03:29:09.050Z,471.00
2023-05-20T03:30:09.059Z,471.00
2023-05-20T03:31:09.201Z,471.00
2023-05-20T03:32:10.809Z,472.00
2023-05-20T03:33:09.242Z,470.00
2023-05-20T03:34:09.362Z,465.00
2023-05-20T03:35:09.315Z,464.00
2023-05-20T03:36:09.424Z,462.00
2023-05-20T03:37:09.390Z,463.00
2023-05-20T03:38:09.468Z,460.00
2023-05-20T03:39:09.517Z,459.00
2023-05-20T03:40:09.534Z,457.00
2023-05-20T03:41:09.637Z,459.00
2023-05-20T03:42:09.705Z,459.00
2023-05-20T03:43:09.732Z,461.00
2023-05-20T03:44:09.789Z,461.00
2023-05-20T03:45:09.806Z,459.00
2023-05-20T03:46:09.889Z,459.00
2023-05-20T03:47:09.885Z,458.00
2023-05-20T03:48:09.914Z,458.00
2023-05-20T03:49:09.951Z,458.00
2023-05-20T03:50:09.998Z,461.00
2023-05-20T03:51:10.010Z,464.00
2023-05-20T03:52:10.087Z,463.00
2023-05-20T03:53:10.113Z,463.00
2023-05-20T03:54:10.147Z,462.00
2023-05-20T03:55:10.175Z,464.00
2023-05-20T03:56:10.215Z,464.00
2023-05-20T03:57:10.209Z,462.00
2023-05-20T03:58:10.254Z,459.00
2023-05-20T03:59:10.272Z,457.00
2023-05-20T04:00:10.345Z,456.00
2023-05-20T04:01:10.377Z,457.00
2023-05-20T04:02:10.436Z,456.00
2023-05-20T04:03:10.539Z,458.00
2023-05-20T04:04:10.527Z,456.00
2023-05-20T04:05:10.528Z,456.00
2023-05-20T04:06:10.580Z,456.00
2023-05-20T04:07:10.621Z,456.00
2023-05-20T04:08:10.663Z,457.00
2023-05-20T04:09:10.698Z,457.00
2023-05-20T04:10:10.765Z,456.00
2023-05-20T04:11:10.777Z,455.00
2023-05-20T04:12:10.837Z,454.00
2023-05-20T04:13:10.829Z,452.00
2023-05-20T04:14:10.862Z,453.00
2023-05-20T04:15:10.869Z,453.00
2023-05-20T04:16:10.906Z,453.00
2023-05-20T04:17:10.977Z,452.00
2023-05-20T04:18:11.082Z,451.00
2023-05-20T04:19:11.051Z,454.00
2023-05-20T04:20:11.017Z,457.00
2023-05-20T04:21:11.098Z,456.00
2023-05-20T04:22:11.122Z,458.00
2023-05-20T04:23:11.157Z,457.00
2023-05-20T04:24:11.236Z,458.00
2023-05-20T04:25:11.187Z,456.00
2023-05-20T04:26:11.254Z,457.00
2023-05-20T04:27:11.288Z,456.00
2023-05-20T04:28:11.361Z,456.00
2023-05-20T04:29:11.383Z,454.00
2023-05-20T04:30:11.403Z,453.00
2023-05-20T04:31:11.427Z,451.00
2023-05-20T04:32:11.501Z,451.00
2023-05-20T04:33:11.533Z,450.00
2023-05-20T04:34:11.518Z,451.00
2023-05-20T04:35:11.604Z,453.00
2023-05-20T04:36:11.643Z,452.00
2023-05-20T04:37:11.692Z,451.00
2023-05-20T04:38:11.749Z,452.00
2023-05-20T04:39:11.804Z,454.00
2023-05-20T04:40:11.884Z,454.00
2023-05-20T04:41:11.945Z,456.00
2023-05-20T04:42:12.018Z,455.00
2023-05-20T04:43:12.083Z,454.00
2023-05-20T04:44:12.106Z,454.00
2023-05-20T04:45:12.195Z,453.00
2023-05-20T04:46:12.262Z,451.00
2023-05-20T04:47:12.291Z,450.00
2023-05-20T04:48:12.329Z,449.00
2023-05-20T04:49:12.375Z,448.00
2023-05-20T04:50:12.397Z,450.00
2023-05-20T04:51:12.417Z,455.00
2023-05-20T04:52:12.440Z,456.00
2023-05-20T04:53:12.460Z,457.00
2023-05-20T04:54:12.499Z,457.00
2023-05-20T04:55:12.488Z,455.00
2023-05-20T04:56:12.563Z,454.00
2023-05-20T04:57:12.576Z,454.00
2023-05-20T04:58:12.644Z,453.00
2023-05-20T04:59:12.688Z,455.00
2023-05-20T05:00:12.831Z,455.00
2023-05-20T05:01:12.815Z,455.00
2023-05-20T05:02:12.822Z,454.00
2023-05-20T05:03:12.886Z,455.00
2023-05-20T05:04:12.966Z,455.00
2023-05-20T05:05:12.922Z,452.00
2023-05-20T05:06:13.016Z,447.00
2023-05-20T05:07:12.992Z,445.00
2023-05-20T05:08:13.032Z,445.00
2023-05-20T05:09:13.106Z,443.00
2023-05-20T05:10:13.112Z,441.00
2023-05-20T05:11:13.187Z,441.00
2023-05-20T05:12:13.196Z,439.00
2023-05-20T05:13:13.293Z,440.00
2023-05-20T05:14:13.309Z,441.00
2023-05-20T05:15:13.356Z,441.00
2023-05-20T05:16:13.501Z,442.00
2023-05-20T05:17:13.441Z,444.00
2023-05-20T05:18:13.457Z,444.00
2023-05-20T05:19:13.720Z,446.00
2023-05-20T05:20:13.510Z,446.00
2023-05-20T05:21:13.585Z,447.00
2023-05-20T05:22:13.584Z,448.00
2023-05-20T05:23:13.579Z,448.00
2023-05-20T05:24:13.626Z,450.00
2023-05-20T05:25:13.658Z,448.00
2023-05-20T05:26:13.705Z,448.00
2023-05-20T05:27:13.682Z,446.00
2023-05-20T05:28:13.684Z,445.00
2023-05-20T05:29:13.685Z,446.00
2023-05-20T05:30:13.708Z,447.00
2023-05-20T05:31:13.701Z,448.00
2023-05-20T05:32:13.717Z,448.00
2023-05-20T05:33:13.717Z,449.00
2023-05-20T05:34:13.758Z,449.00
2023-05-20T05:35:13.776Z,450.00
2023-05-20T05:36:13.738Z,453.00
2023-05-20T05:37:13.777Z,451.00
2023-05-20T05:38:13.845Z,450.00
2023-05-20T05:39:13.887Z,447.00
2023-05-20T05:40:13.910Z,446.00
2023-05-20T05:41:13.923Z,445.00
2023-05-20T05:42:13.943Z,445.00
2023-05-20T05:43:13.925Z,446.00
2023-05-20T05:44:14.017Z,445.00
2023-05-20T05:45:14.056Z,444.00
2023-05-20T05:46:14.109Z,445.00
2023-05-20T05:47:14.212Z,444.00
2023-05-20T05:48:14.233Z,444.00
2023-05-20T05:49:14.261Z,443.00
2023-05-20T05:50:14.362Z,441.00
2023-05-20T05:51:14.415Z,437.00
2023-05-20T05:52:14.445Z,440.00
2023-05-20T05:53:14.506Z,439.00
2023-05-20T05:54:14.544Z,438.00
2023-05-20T05:55:14.579Z,438.00
2023-05-20T05:56:14.662Z,436.00
2023-05-20T05:57:14.680Z,438.00
2023-05-20T05:58:14.698Z,439.00
2023-05-20T05:59:14.713Z,439.00
2023-05-20T06:00:14.723Z,437.00
2023-05-20T06:01:14.818Z,437.00
2023-05-20T06:02:14.854Z,437.00
2023-05-20T06:03:14.889Z,439.00
2023-05-20T06:04:14.885Z,440.00
2023-05-20T06:05:14.883Z,440.00
2023-05-20T06:06:14.900Z,439.00
2023-05-20T06:07:14.943Z,440.00
2023-05-20T06:08:14.925Z,437.00
2023-05-20T06:09:14.957Z,437.00
2023-05-20T06:10:15.010Z,439.00
2023-05-20T06:11:14.979Z,437.00
2023-05-20T06:12:15.002Z,436.00
2023-05-20T06:13:15.007Z,436.00
2023-05-20T06:14:15.040Z,434.00
2023-05-20T06:15:15.079Z,433.00
2023-05-20T06:16:15.120Z,431.00
2023-05-20T06:17:15.130Z,429.00
2023-05-20T06:18:15.139Z,429.00
2023-05-20T06:19:15.175Z,431.00
2023-05-20T06:20:15.166Z,431.00
2023-05-20T06:21:15.260Z,432.00
2023-05-20T06:22:15.303Z,435.00
2023-05-20T06:23:15.328Z,438.00
2023-05-20T06:24:15.378Z,438.00
2023-05-20T06:25:15.385Z,439.00
2023-05-20T06:26:15.449Z,439.00
2023-05-20T06:27:15.456Z,440.00
2023-05-20T06:28:15.438Z,441.00
2023-05-20T06:29:15.477Z,440.00
2023-05-20T06:30:15.541Z,439.00
2023-05-20T06:31:15.544Z,438.00
2023-05-20T06:32:15.543Z,435.00
2023-05-20T06:33:15.571Z,436.00
2023-05-20T06:34:15.597Z,436.00
2023-05-20T06:35:15.567Z,437.00
2023-05-20T06:36:15.622Z,438.00
2023-05-20T06:37:15.562Z,437.00
2023-05-20T06:38:15.600Z,435.00
2023-05-20T06:39:15.582Z,436.00
2023-05-20T06:40:15.584Z,436.00
2023-05-20T06:41:15.611Z,437.00
2023-05-20T06:42:15.564Z,437.00
2023-05-20T06:43:15.570Z,433.00
2023-05-20T06:44:15.624Z,434.00
2023-05-20T06:45:15.588Z,435.00
2023-05-20T06:46:15.650Z,436.00
2023-05-20T06:47:15.616Z,435.00
2023-05-20T06:48:15.657Z,435.00
2023-05-20T06:49:15.710Z,435.00
2023-05-20T06:50:15.730Z,436.00
2023-05-20T06:51:15.891Z,437.00
2023-05-20T06:52:15.837Z,436.00
2023-05-20T06:53:15.957Z,434.00
2023-05-20T06:54:16.016Z,430.00
2023-05-20T06:55:16.068Z,430.00
2023-05-20T06:56:16.141Z,430.00
2023-05-20T06:57:16.124Z,431.00
2023-05-20T06:58:16.212Z,431.00
2023-05-20T06:59:16.250Z,429.00
2023-05-20T07:00:16.289Z,427.00
2023-05-20T07:01:18.096Z,428.00
2023-05-20T07:02:16.411Z,431.00
2023-05-20T07:03:16.410Z,430.00
2023-05-20T07:04:16.479Z,429.00
2023-05-20T07:05:16.510Z,429.00
2023-05-20T07:06:16.551Z,429.00
2023-05-20T07:07:17.434Z,429.00
2023-05-20T07:08:16.599Z,429.00
2023-05-20T07:09:16.567Z,428.00
2023-05-20T07:10:24.299Z,426.00
2023-05-20T07:11:16.630Z,423.00
2023-05-20T07:12:16.585Z,424.00
2023-05-20T07:13:16.612Z,423.00
2023-05-20T07:14:16.555Z,423.00
2023-05-20T07:15:16.566Z,422.00
2023-05-20T07:16:16.617Z,424.00
2023-05-20T07:17:16.577Z,423.00
2023-05-20T07:18:16.574Z,423.00
2023-05-20T07:19:16.703Z,424.00
2023-05-20T07:20:16.599Z,423.00
2023-05-20T07:21:16.564Z,421.00
2023-05-20T07:22:16.563Z,420.00
2023-05-20T07:23:16.517Z,420.00
2023-05-20T07:24:16.535Z,421.00
2023-05-20T07:25:16.537Z,419.00
2023-05-20T07:26:16.554Z,418.00
2023-05-20T07:27:16.536Z,420.00
2023-05-20T07:28:16.507Z,419.00
2023-05-20T07:29:16.515Z,420.00
2023-05-20T07:30:16.498Z,418.00
2023-05-20T07:31:16.558Z,416.00
2023-05-20T07:32:16.524Z,415.00
2023-05-20T07:33:16.530Z,415.00
2023-05-20T07:34:16.592Z,415.00
2023-05-20T07:35:16.592Z,415.00
2023-05-20T07:36:16.604Z,418.00
2023-05-20T07:37:16.611Z,419.00
2023-05-20T07:38:16.613Z,420.00
2023-05-20T07:39:16.646Z,422.00
2023-05-20T07:40:16.741Z,423.00
2023-05-20T07:41:16.780Z,420.00
2023-05-20T07:42:16.810Z,417.00
2023-05-20T07:43:16.816Z,416.00
2023-05-20T07:44:16.950Z,418.00
2023-05-20T07:45:16.873Z,417.00
2023-05-20T07:46:18.077Z,418.00
2023-05-20T07:47:16.872Z,419.00
2023-05-20T07:48:16.896Z,421.00
2023-05-20T07:49:16.845Z,420.00
2023-05-20T07:50:16.856Z,418.00
2023-05-20T07:51:16.854Z,418.00
2023-05-20T07:52:16.816Z,419.00
2023-05-20T07:53:16.837Z,417.00
2023-05-20T07:54:16.800Z,418.00
2023-05-20T07:55:16.825Z,419.00
2023-05-20T07:56:16.807Z,417.00
2023-05-20T07:57:16.822Z,417.00
2023-05-20T07:58:24.448Z,416.00
2023-05-20T07:59:16.786Z,416.00
2023-05-20T08:00:16.774Z,415.00
2023-05-20T08:01:16.822Z,416.00
2023-05-20T08:02:16.806Z,420.00
2023-05-20T08:03:16.877Z,422.00
2023-05-20T08:04:16.843Z,422.00
2023-05-20T08:05:16.756Z,424.00
2023-05-20T08:06:16.779Z,424.00
2023-05-20T08:07:16.756Z,426.00
2023-05-20T08:08:16.716Z,429.00
2023-05-20T08:09:16.743Z,428.00
2023-05-20T08:10:16.700Z,427.00
2023-05-20T08:11:16.739Z,426.00
2023-05-20T08:12:16.732Z,424.00
2023-05-20T08:13:16.711Z,425.00
2023-05-20T08:14:16.720Z,425.00
2023-05-20T08:15:16.654Z,424.00
2023-05-20T08:16:16.748Z,426.00
2023-05-20T08:17:16.740Z,428.00
2023-05-20T08:18:16.663Z,430.00
2023-05-20T08:19:16.728Z,429.00
2023-05-20T08:20:16.636Z,429.00
2023-05-20T08:21:16.666Z,428.00
2023-05-20T08:22:16.642Z,427.00
2023-05-20T08:23:16.608Z,428.00
2023-05-20T08:24:16.608Z,427.00
2023-05-20T08:25:16.619Z,425.00
2023-05-20T08:26:16.599Z,428.00
2023-05-20T08:27:16.608Z,429.00
2023-05-20T08:28:16.579Z,429.00
2023-05-20T08:29:16.605Z,430.00
2023-05-20T08:30:16.622Z,428.00
2023-05-20T08:31:16.662Z,426.00
2023-05-20T08:32:16.637Z,426.00
2023-05-20T08:33:16.622Z,426.00
2023-05-20T08:34:16.664Z,425.00
2023-05-20T08:35:16.704Z,425.00
2023-05-20T08:36:16.768Z,426.00
2023-05-20T08:37:16.890Z,423.00
2023-05-20T08:38:16.896Z,423.00
2023-05-20T08:39:17.002Z,422.00
2023-05-20T08:40:17.010Z,422.00
2023-05-20T08:41:17.077Z,422.00
2023-05-20T08:42:17.079Z,420.00
2023-05-20T08:43:17.152Z,419.00
2023-05-20T08:44:17.174Z,420.00
2023-05-20T08:45:17.163Z,422.00
2023-05-20T08:46:18.300Z,423.00
2023-05-20T08:47:17.215Z,422.00
2023-05-20T08:48:17.208Z,424.00
2023-05-20T08:49:17.177Z,424.00
2023-05-20T08:50:17.244Z,426.00
2023-05-20T08:51:17.295Z,426.00
2023-05-20T08:52:17.357Z,427.00
2023-05-20T08:53:17.313Z,426.00
2023-05-20T08:54:17.348Z,424.00
2023-05-20T08:55:17.345Z,425.00
2023-05-20T08:56:17.414Z,425.00
2023-05-20T08:57:17.391Z,424.00
2023-05-20T08:58:17.475Z,424.00
2023-05-20T08:59:17.539Z,423.00
2023-05-20T09:00:17.580Z,420.00
2023-05-20T09:01:17.685Z,418.00
2023-05-20T09:02:17.784Z,418.00
2023-05-20T09:03:17.758Z,418.00
2023-05-20T09:04:17.750Z,418.00
2023-05-20T09:05:17.864Z,419.00
2023-05-20T09:06:17.902Z,421.00
2023-05-20T09:07:17.911Z,421.00
2023-05-20T09:08:17.979Z,422.00
2023-05-20T09:09:18.137Z,421.00
2023-05-20T09:10:18.143Z,419.00
2023-05-20T09:11:18.096Z,420.00
2023-05-20T09:12:18.173Z,424.00
2023-05-20T09:13:18.181Z,417.00
2023-05-20T09:14:18.176Z,412.00
2023-05-20T09:15:18.227Z,411.00
2023-05-20T09:16:18.271Z,412.00
2023-05-20T09:17:18.303Z,415.00
2023-05-20T09:18:18.399Z,414.00
2023-05-20T09:19:18.431Z,414.00
2023-05-20T09:20:18.440Z,415.00
2023-05-20T09:21:18.469Z,412.00
2023-05-20T09:22:18.541Z,408.00
2023-05-20T09:23:18.535Z,408.00
2023-05-20T09:24:18.602Z,407.00
2023-05-20T09:25:18.612Z,407.00
2023-05-20T09:26:18.619Z,409.00
2023-05-20T09:27:18.661Z,411.00
2023-05-20T09:28:18.668Z,412.00
2023-05-20T09:29:18.656Z,415.00
2023-05-20T09:30:18.713Z,415.00
2023-05-20T09:31:18.726Z,412.00
2023-05-20T09:32:18.759Z,414.00
2023-05-20T09:33:18.729Z,415.00
2023-05-20T09:34:18.784Z,416.00
2023-05-20T09:35:18.814Z,419.00
2023-05-20T09:36:18.888Z,421.00
2023-05-20T09:37:18.909Z,423.00
2023-05-20T09:38:18.930Z,423.00
2023-05-20T09:39:18.944Z,421.00
2023-05-20T09:40:19.058Z,418.00
2023-05-20T09:41:19.018Z,417.00
2023-05-20T09:42:19.056Z,420.00
2023-05-20T09:43:19.090Z,418.00
2023-05-20T09:44:19.092Z,413.00
2023-05-20T09:45:19.182Z,420.00
2023-05-20T09:46:19.168Z,413.00
2023-05-20T09:47:19.284Z,416.00
2023-05-20T09:48:19.265Z,419.00
2023-05-20T09:49:19.284Z,418.00
2023-05-20T09:50:19.369Z,418.00
2023-05-20T09:51:19.326Z,419.00
2023-05-20T09:52:21.341Z,418.00
2023-05-20T09:53:19.386Z,419.00
2023-05-20T09:54:19.441Z,419.00
2023-05-20T09:55:19.479Z,420.00
2023-05-20T09:56:19.445Z,418.00
2023-05-20T09:57:19.540Z,420.00
2023-05-20T09:58:19.584Z,420.00
2023-05-20T09:59:19.620Z,419.00
2023-05-20T10:00:19.913Z,422.00
2023-05-20T10:01:19.649Z,421.00
2023-05-20T10:02:19.756Z,421.00
2023-05-20T10:03:19.717Z,420.00
2023-05-20T10:04:19.667Z,423.00
2023-05-20T10:05:19.736Z,425.00
2023-05-20T10:06:19.735Z,425.00
2023-05-20T10:07:30.570Z,425.00
2023-05-20T10:08:20.712Z,426.00
2023-05-20T10:09:19.688Z,423.00
2023-05-20T10:10:19.721Z,426.00
2023-05-20T10:11:19.724Z,428.00
2023-05-20T10:12:19.691Z,427.00
2023-05-20T10:13:19.684Z,426.00
2023-05-20T10:14:19.679Z,426.00
2023-05-20T10:15:19.634Z,426.00
2023-05-20T10:16:19.677Z,424.00
2023-05-20T10:17:19.664Z,424.00
2023-05-20T10:18:19.672Z,421.00
2023-05-20T10:19:19.683Z,419.00
2023-05-20T10:20:19.633Z,417.00
2023-05-20T10:21:19.615Z,416.00
2023-05-20T10:22:19.656Z,413.00
2023-05-20T10:23:19.584Z,415.00
2023-05-20T10:24:19.588Z,417.00
2023-05-20T10:25:19.600Z,417.00
2023-05-20T10:26:19.646Z,417.00
2023-05-20T10:27:19.688Z,416.00
2023-05-20T10:28:19.648Z,417.00
2023-05-20T10:29:19.713Z,418.00
2023-05-20T10:30:19.791Z,419.00
2023-05-20T10:31:19.819Z,423.00
2023-05-20T10:32:19.903Z,422.00
2023-05-20T10:33:19.841Z,419.00
2023-05-20T10:34:19.914Z,418.00
2023-05-20T10:35:19.858Z,417.00
2023-05-20T10:36:19.904Z,420.00
2023-05-20T10:37:19.909Z,421.00
2023-05-20T10:38:19.956Z,421.00
2023-05-20T10:39:19.998Z,419.00
2023-05-20T10:40:20.030Z,422.00
2023-05-20T10:41:20.083Z,421.00
2023-05-20T10:42:20.087Z,419.00
2023-05-20T10:43:20.911Z,420.00
2023-05-20T10:44:20.196Z,420.00
2023-05-20T10:45:20.202Z,421.00
2023-05-20T10:46:31.192Z,420.00
2023-05-20T10:47:25.713Z,416.00
2023-05-20T10:48:21.278Z,412.00
2023-05-20T10:49:22.439Z,411.00
2023-05-20T10:50:20.240Z,413.00
2023-05-20T10:51:20.199Z,416.00
2023-05-20T10:52:20.195Z,416.00
2023-05-20T10:53:29.764Z,418.00
2023-05-20T10:54:21.187Z,419.00
2023-05-20T10:55:20.203Z,417.00
2023-05-20T10:56:20.123Z,419.00
2023-05-20T10:57:20.175Z,413.00
2023-05-20T10:58:20.136Z,414.00
2023-05-20T10:59:20.172Z,411.00
2023-05-20T11:00:20.128Z,409.00
2023-05-20T11:01:20.232Z,410.00
2023-05-20T11:02:20.123Z,410.00
2023-05-20T11:03:20.243Z,409.00
2023-05-20T11:04:20.120Z,411.00
2023-05-20T11:05:20.127Z,409.00
2023-05-20T11:06:20.139Z,409.00
2023-05-20T11:07:20.117Z,410.00
2023-05-20T11:08:28.921Z,408.00
2023-05-20T11:09:21.081Z,410.00
2023-05-20T11:10:20.093Z,416.00
2023-05-20T11:11:20.078Z,414.00
2023-05-20T11:12:20.090Z,411.00
2023-05-20T11:13:20.095Z,412.00
2023-05-20T11:14:20.148Z,410.00
2023-05-20T11:15:20.061Z,410.00
2023-05-20T11:16:20.070Z,411.00
2023-05-20T11:17:20.077Z,410.00
2023-05-20T11:18:20.077Z,411.00
2023-05-20T11:19:20.221Z,408.00
2023-05-20T11:20:20.017Z,409.00
2023-05-20T11:21:20.065Z,408.00
2023-05-20T11:22:20.105Z,410.00
2023-05-20T11:23:20.162Z,411.00
2023-05-20T11:24:20.164Z,409.00
2023-05-20T11:25:20.186Z,408.00
2023-05-20T11:26:20.228Z,410.00
2023-05-20T11:27:20.283Z,409.00
2023-05-20T11:28:20.287Z,409.00
2023-05-20T11:29:20.272Z,407.00
2023-05-20T11:30:20.335Z,410.00
2023-05-20T11:31:20.359Z,416.00
2023-05-20T11:32:20.516Z,417.00
2023-05-20T11:33:20.595Z,416.00
2023-05-20T11:34:21.095Z,413.00
2023-05-20T11:35:20.530Z,412.00
2023-05-20T11:36:27.829Z,408.00
2023-05-20T11:37:21.567Z,409.00
2023-05-20T11:38:20.546Z,410.00
2023-05-20T11:39:20.563Z,409.00
2023-05-20T11:40:20.507Z,410.00
2023-05-20T11:41:20.522Z,412.00
2023-05-20T11:42:20.571Z,414.00
2023-05-20T11:43:20.486Z,416.00
2023-05-20T11:44:20.483Z,413.00
2023-05-20T11:45:20.488Z,409.00
2023-05-20T11:46:20.572Z,407.00
2023-05-20T11:47:22.577Z,407.00
2023-05-20T11:48:20.460Z,409.00
2023-05-20T11:49:20.498Z,408.00
2023-05-20T11:50:20.542Z,412.00
2023-05-20T11:51:20.522Z,411.00
2023-05-20T11:52:20.597Z,414.00
2023-05-20T11:53:20.605Z,416.00
2023-05-20T11:54:20.638Z,414.00
2023-05-20T11:55:20.676Z,414.00
2023-05-20T11:56:20.691Z,413.00
2023-05-20T11:57:20.746Z,414.00
2023-05-20T11:58:20.705Z,415.00
2023-05-20T11:59:20.715Z,416.00
2023-05-20T12:00:20.761Z,416.00
2023-05-20T12:01:22.673Z,415.00
2023-05-20T12:02:21.056Z,410.00
2023-05-20T12:03:21.204Z,406.00
2023-05-20T12:04:21.187Z,406.00
2023-05-20T12:05:21.171Z,407.00
2023-05-20T12:06:21.156Z,406.00
2023-05-20T12:07:21.196Z,409.00
2023-05-20T12:08:21.222Z,410.00
2023-05-20T12:09:21.231Z,408.00
2023-05-20T12:10:21.304Z,408.00
2023-05-20T12:11:21.328Z,410.00
2023-05-20T12:12:21.350Z,409.00
2023-05-20T12:13:21.301Z,411.00
2023-05-20T12:14:21.403Z,411.00
2023-05-20T12:15:21.426Z,410.00
2023-05-20T12:16:21.502Z,410.00
2023-05-20T12:17:21.520Z,408.00
2023-05-20T12:18:21.551Z,409.00
2023-05-20T12:19:21.673Z,409.00
2023-05-20T12:20:21.553Z,408.00
2023-05-20T12:21:21.602Z,409.00
2023-05-20T12:22:21.621Z,408.00
2023-05-20T12:23:21.640Z,412.00
2023-05-20T12:24:21.686Z,412.00
2023-05-20T12:25:21.764Z,411.00
2023-05-20T12:26:21.720Z,409.00
2023-05-20T12:27:21.761Z,406.00
2023-05-20T12:28:21.778Z,408.00